Home > Products > Valid Products > TAF

000
FTUS41 KBGM 300500
TAFAVP
TAF
KAVP 300535Z 3006/3106 24008KT 5SM -SHSN SCT015 OVC025
     FM301100 30010G20KT 5SM -SHSN SCT012 OVC025
      TEMPO 3011/3014 2SM -SHSN OVC012
     FM301400 32015G25KT P6SM OVC022
     FM310000 32012G22KT P6SM SCT025=



000
FTUS41 KBGM 300500
TAFITH
TAF
KITH 300535Z 3006/3106 21008KT 3SM -SHSN OVC015
      TEMPO 3006/3008 2SM -SHSN
     FM300900 30012G22KT 4SM -SHSN SCT008 OVC015
      TEMPO 3009/3013 2SM -SHSN OVC008
     FM301300 32015G25KT 2SM -SHSN OVC012
     FM301800 32015G28KT 5SM -SHSN OVC015
     FM310000 31012G22KT P6SM -SHSN BKN025=



000
FTUS41 KBGM 300500
TAFBGM
TAF
KBGM 300535Z 3006/3106 20008KT 3SM -SHSN SCT008 OVC012
      TEMPO 3006/3008 2SM -SHSN OVC008
     FM301000 30010G20KT 4SM -SHSN SCT008 OVC012
      TEMPO 3010/3014 2SM -SHSN OVC008
     FM301400 32015G28KT 5SM -SHSN OVC015
     FM310000 32012G22KT P6SM -SHSN BKN025=



000
FTUS41 KBGM 300500
TAFELM
TAF
KELM 300535Z 3006/3106 25007KT 3SM -SHSN OVC025
     FM300900 29010G20KT 4SM -SHSN OVC018
     FM301400 31012G22KT P6SM -SHSN OVC022
     FM310000 30010G20KT P6SM SCT025=



000
FTUS41 KBGM 300500
TAFSYR
TAF
KSYR 300535Z 3006/3106 22010KT 3SM -SHSN SCT008 OVC015
      TEMPO 3006/3009 1 1/2SM -SHSN OVC008
     FM300900 29012G22KT 2SM -SHSN OVC012
     FM301300 31015G28KT 3SM -SHSN OVC015
      TEMPO 3013/3015 2SM -SHSN
     FM310000 31012G22KT P6SM -SHSN BKN025=



000
FTUS41 KBGM 300200 AAA
TAFELM
TAF AMD
KELM 300257Z 3003/3024 16012KT P6SM -SHSN OVC018 WS020/18045KT
     FM300400 16012KT 3SM -SN OVC018
     FM301000 29010G20KT 4SM -SHSN OVC025=



000
FTUS41 KBGM 300100 AAA
TAFAVP
TAF AMD
KAVP 300134Z 3002/3024 20010KT P6SM -SHSN OVC025 WS020/18040KT
      TEMPO 3002/3006 1SM -SN
     FM300600 20010KT 5SM -SHSN OVC025
     FM301200 30013G20KT P6SM OVC025=



000
FTUS41 KBGM 292300
TAFBGM
TAF
KBGM 292340Z 3000/3024 16012KT 5SM -SHSN OVC020 WS020/18045KT
      TEMPO 3000/3002 1 1/2SM -SN
     FM300300 16012KT 5SM -SHSN OVC015 WS020/18045KT
      TEMPO 3003/3006 1 1/2SM -SN
     FM300700 16012KT 1 1/2SM -SN OVC010
     FM301200 30010G20KT 4SM -SHSN OVC015=



000
FTUS41 KBGM 292300
TAFELM
TAF
KELM 292340Z 3000/3024 16012KT P6SM -SHSN OVC025 WS020/18045KT
     FM300400 16012KT 3SM -SN OVC025
     FM301000 29010G20KT 4SM -SHSN OVC025=



000
FTUS41 KBGM 292300
TAFAVP
TAF
KAVP 292340Z 3000/3024 20010KT P6SM -SHSN OVC025 WS020/18040KT
      TEMPO 3001/3003 1SM -SN
     FM300600 20010KT 5SM -SHSN OVC025
     FM301200 30013G20KT P6SM OVC025=



000
FTUS41 KBGM 292300
TAFSYR
TAF
KSYR 292340Z 3000/3024 16012KT 5SM -SHSN OVC020 WS020/18045KT
      TEMPO 3000/3004 1 1/2SM -SN
     FM300400 16012KT 1SM -SN OVC012
     FM301200 30014G25KT 1 1/2SM -SHSN OVC015=



000
FTUS41 KBGM 292300
TAFITH
TAF
KITH 292340Z 3000/3024 16012KT 5SM -SHSN OVC020 WS020/18045KT
      TEMPO 3000/3001 1 1/2SM -SN
     FM300300 16012KT 5SM -SHSN OVC015 WS020/18045KT
      TEMPO 3003/3006 1 1/2SM -SN
     FM300700 16012KT 2SM -SN OVC010
     FM301100 30013G25KT 3SM -SHSN OVC010=



000
FTUS41 KBGM 291700
TAFAVP
TAF
KAVP 291733Z 2918/3018 19010KT P6SM OVC080
     FM292100 19010KT P6SM OVC080 WS020/18040KT
     FM300000 20010KT 2SM -SN OVC025 WS020/18040KT
      TEMPO 3001/3005 1SM -SN OVC008
     FM300600 20010KT 2SM -SN OVC025
     FM301200 30013G20KT P6SM OVC025=



000
FTUS41 KBGM 291700
TAFBGM
TAF
KBGM 291733Z 2918/3018 15010KT P6SM BKN100
     FM291900 15010KT P6SM OVC080 WS020/18045KT
     FM300000 16012KT 1 1/2SM -SN OVC015 WS020/18045KT
      TEMPO 3003/3007 1SM -SN OVC008
     FM300700 16012KT 1 1/2SM -SN OVC010
     FM301200 30010G20KT 4SM -SHSN OVC015=



000
FTUS41 KBGM 291700
TAFELM
TAF
KELM 291733Z 2918/3018 15009KT P6SM OVC080 WS020/18045KT
     FM292300 16012KT 2SM -SN OVC025 WS020/18045KT
      TEMPO 3002/3006 1SM -SN OVC010
     FM300600 16012KT 2SM -SN OVC025
     FM301000 29010G20KT 4SM -SHSN OVC025=



000
FTUS41 KBGM 291700
TAFSYR
TAF
KSYR 291733Z 2918/3018 15012KT P6SM OVC070 WS020/18045KT
     FM292300 16012KT 2SM -SN OVC020 WS020/18045KT
     FM300300 16012KT 1SM -SN OVC010
     FM301200 30014G25KT 2SM -SHSN OVC015=



000
FTUS41 KBGM 291700
TAFITH
TAF
KITH 291733Z 2918/3018 17012KT P6SM OVC070 WS020/18045KT
     FM292300 16012KT 2SM -SN OVC020 WS020/18045KT
      TEMPO 3003/3007 1SM -SN OVC008
     FM300700 16012KT 2SM -SN OVC010
     FM301100 30013G25KT 3SM -SHSN OVC010=



000
FTUS41 KBGM 291600 AAA
TAFAVP
TAF AMD
KAVP 291613Z 2916/3012 VRB03KT P6SM BKN200
     FM291800 19010KT P6SM OVC080
     FM292100 19010KT P6SM OVC080 WS020/18040KT
     FM300000 20010KT 2SM -SN OVC025 WS020/18040KT
      TEMPO 3001/3005 1SM -SN OVC008
     FM300600 20010KT 2SM -SN OVC025=



000
FTUS41 KBGM 291600 AAA
TAFSYR
TAF AMD
KSYR 291606Z 2916/3012 12006KT P6SM BKN150
     FM291800 15012KT P6SM OVC080 WS020/18045KT
     FM300000 16012KT 2SM -SN OVC020
     FM300300 16012KT 1SM -SN OVC008=



000
FTUS41 KBGM 291600 AAA
TAFITH
TAF AMD
KITH 291604Z 2916/3012 17010KT P6SM OVC070
     FM291800 17012KT P6SM OVC070 WS020/18045KT
     FM300000 16012KT 2SM -SN OVC020
      TEMPO 3003/3007 1SM -SN OVC008=



000
FTUS41 KBGM 291600 AAA
TAFBGM
TAF AMD
KBGM 291602Z 2916/3012 15010KT P6SM BKN100
     FM291900 15010KT P6SM OVC080 WS020/18045KT
     FM300000 16012KT 1 1/2SM -SN OVC015
      TEMPO 3003/3007 1SM -SN OVC008=



000
FTUS41 KBGM 291500 AAA
TAFELM
TAF AMD
KELM 291559Z 2916/3012 VRB04KT P6SM OVC060
     FM291800 15009KT P6SM OVC080 WS020/18045KT
     FM292300 16012KT 2SM -SN OVC025
      TEMPO 3002/3006 1SM -SN OVC010=



000
FTUS41 KBGM 291100
TAFBGM
TAF
KBGM 291132Z 2912/3012 VRB03KT P6SM BKN150
     FM291800 15010KT P6SM OVC080
     FM300000 16012KT 1 1/2SM -SN OVC015
      TEMPO 3003/3007 1SM -SN OVC008=



000
FTUS41 KBGM 291100
TAFITH
TAF
KITH 291132Z 2912/3012 12006KT P6SM BKN150
     FM291800 15012KT P6SM OVC080
     FM300000 16012KT 2SM -SN OVC020
      TEMPO 3003/3007 1SM -SN OVC008=



000
FTUS41 KBGM 291100
TAFAVP
TAF
KAVP 291132Z 2912/3012 VRB03KT P6SM BKN200
     FM291800 19010KT P6SM OVC080
     FM300000 20010KT 2SM -SN OVC025
      TEMPO 3001/3005 1SM -SN OVC008=



000
FTUS41 KBGM 291100
TAFELM
TAF
KELM 291132Z 2912/3012 00000KT P6SM BKN150
     FM291700 15010KT P6SM OVC080
     FM292300 16012KT 2SM -SN OVC025
      TEMPO 3002/3006 1SM -SN OVC010=



000
FTUS41 KBGM 291100
TAFSYR
TAF
KSYR 291132Z 2912/3012 12006KT P6SM BKN150
     FM291800 15012KT P6SM OVC080
     FM300000 16012KT 2SM -SN OVC020
     FM300300 16012KT 1SM -SN OVC008=



000
FTUS41 KBGM 290800 AAA
TAFAVP
TAF AMD
KAVP 290843Z 2909/3006 VRB03KT P6SM SKC
     FM291200 12004KT P6SM BKN150
     FM291800 19010KT P6SM OVC080
     FM300000 20010KT 2SM -SN OVC025=



000
FTUS41 KBGM 290800 AAA
TAFITH
TAF AMD
KITH 290843Z 2909/3006 VRB03KT P6SM SKC
     FM291200 14005KT P6SM BKN150
     FM291800 15012KT P6SM OVC080
     FM300000 16012KT 1 1/2SM -SN OVC020=



000
FTUS41 KBGM 290800 AAA
TAFSYR
TAF AMD
KSYR 290843Z 2909/3006 VRB03KT P6SM SKC
     FM291200 14005KT P6SM BKN150
     FM291800 15012KT P6SM OVC080
     FM300000 16012KT 1 1/2SM -SN OVC020=



000
FTUS41 KBGM 290800 AAA
TAFELM
TAF AMD
KELM 290843Z 2909/3006 00000KT P6SM SKC
     FM291100 14004KT P6SM BKN150
     FM291700 15010KT P6SM OVC080
     FM292300 16012KT 2SM -SN OVC025=



000
FTUS41 KBGM 290800 AAA
TAFBGM
TAF AMD
KBGM 290843Z 2909/3006 VRB03KT P6SM SKC
     FM291200 14004KT P6SM BKN150
     FM291800 15010KT P6SM OVC080
     FM300000 16012KT 1 1/2SM -SN OVC015=



000
FTUS41 KBGM 290500
TAFAVP
TAF
KAVP 290530Z 2906/3006 VRB03KT P6SM SKC
     FM291200 12004KT P6SM BKN150
     FM291800 19010KT P6SM OVC080
     FM300000 20010KT 2SM -SN OVC025=



000
FTUS41 KBGM 290500
TAFSYR
TAF
KSYR 290530Z 2906/3006 VRB03KT P6SM SKC
     FM291200 14005KT P6SM BKN150
     FM291800 15012KT P6SM OVC080
     FM300000 16012KT 1 1/2SM -SN OVC020=



000
FTUS41 KBGM 290500
TAFBGM
TAF
KBGM 290530Z 2906/3006 VRB03KT P6SM SKC
     FM291200 14004KT P6SM BKN150
     FM291800 15010KT P6SM OVC080
     FM300000 16012KT 1 1/2SM -SN OVC015=



000
FTUS41 KBGM 290500
TAFELM
TAF
KELM 290530Z 2906/3006 00000KT P6SM SKC
     FM291100 14004KT P6SM BKN150
     FM291700 15010KT P6SM OVC080
     FM292300 16012KT 2SM -SN OVC025=



000
FTUS41 KBGM 290500
TAFITH
TAF
KITH 290530Z 2906/3006 VRB03KT P6SM SKC
     FM291200 14005KT P6SM BKN150
     FM291800 15012KT P6SM OVC080
     FM300000 16012KT 1 1/2SM -SN OVC020=



000
FTUS41 KBGM 282300
TAFELM
TAF
KELM 282331Z 2900/2924 00000KT P6SM SKC
     FM291400 17012KT P6SM OVC100=



000
FTUS41 KBGM 282300
TAFITH
TAF
KITH 282331Z 2900/2924 VRB03KT P6SM SKC
     FM291500 16012KT P6SM OVC100=



000
FTUS41 KBGM 282300
TAFAVP
TAF
KAVP 282331Z 2900/2924 VRB03KT P6SM SKC
     FM291600 14008KT P6SM BKN120=



000
FTUS41 KBGM 282300
TAFBGM
TAF
KBGM 282331Z 2900/2924 VRB03KT P6SM SKC
     FM291500 16012KT P6SM OVC100=



000
FTUS41 KBGM 282300
TAFSYR
TAF
KSYR 282331Z 2900/2924 VRB03KT P6SM SKC
     FM291500 15012KT P6SM OVC100=



000
FTUS41 KBGM 281700
TAFAVP
TAF
KAVP 281736Z 2818/2918 32010KT P6SM SKC
     FM290000 VRB03KT P6SM SKC
     FM290800 VRB03KT P6SM OVC200
     FM291600 14008KT P6SM BKN120=



000
FTUS41 KBGM 281700
TAFBGM
TAF
KBGM 281736Z 2818/2918 33012G22KT P6SM SKC
     FM282200 31008KT P6SM SKC
     FM290000 VRB03KT P6SM SKC
     FM290700 13005KT P6SM OVC200
     FM291500 16012KT P6SM OVC100=



000
FTUS41 KBGM 281700
TAFSYR
TAF
KSYR 281736Z 2818/2918 28008KT P6SM SKC
     FM290000 VRB03KT P6SM SKC
     FM290700 11005KT P6SM OVC200
     FM291500 15012KT P6SM OVC100=



000
FTUS41 KBGM 281700
TAFITH
TAF
KITH 281736Z 2818/2918 32010KT P6SM SKC
     FM290000 VRB03KT P6SM SKC
     FM290700 13005KT P6SM OVC200
     FM291500 16012KT P6SM OVC100=



000
FTUS41 KBGM 281700
TAFELM
TAF
KELM 281736Z 2818/2918 31010KT P6SM SKC
     FM290000 00000KT P6SM SKC
     FM290700 VRB05KT P6SM OVC200
     FM291400 17012KT P6SM OVC100=



000
FTUS41 KBGM 281100
TAFELM
TAF
KELM 281120Z 2812/2912 26007KT P6SM SKC
     FM281600 30008KT P6SM SKC
     FM282300 00000KT P6SM SKC=



000
FTUS41 KBGM 281100
TAFAVP
TAF
KAVP 281120Z 2812/2912 31007KT P6SM SKC
     FM281500 33010G16KT P6SM SKC
     FM290000 VRB03KT P6SM SKC=



000
FTUS41 KBGM 281100
TAFSYR
TAF
KSYR 281120Z 2812/2912 31007KT P6SM SKC
     FM282300 VRB03KT P6SM SKC=



000
FTUS41 KBGM 281100
TAFBGM
TAF
KBGM 281120Z 2812/2912 33010KT P6SM SKC
     FM281500 33010G18KT P6SM SKC
     FM282200 VRB05KT P6SM SKC=



000
FTUS41 KBGM 281100
TAFITH
TAF
KITH 281120Z 2812/2912 33008KT P6SM SKC
     FM290000 VRB03KT P6SM SKC=



000
FTUS41 KBGM 280900 AAA
TAFSYR
TAF AMD
KSYR 280900Z 2809/2906 30006KT P6SM SKC
     FM281400 32007KT P6SM SKC
     FM282300 VRB03KT P6SM SKC=



000
FTUS41 KBGM 280900 AAB
TAFAVP
TAF AMD
KAVP 280900Z 2809/2906 31007KT P6SM SKC
     FM281500 33010G18KT P6SM SKC
     FM290000 VRB03KT P6SM SKC=



000
FTUS41 KBGM 280900 AAA
TAFBGM
TAF AMD
KBGM 280900Z 2809/2906 32010KT P6SM SKC
     FM281500 33010G18KT P6SM SKC
     FM290000 32005KT P6SM SKC=



000
FTUS41 KBGM 280900 AAB
TAFAVP
TAF AMD
KAVP 280900Z 2809/2906 31007KT P6SM SKC
     FM281500 33010G18KT P6SM SKC
     FM290000 VRB03KT P6SM SKC=



000
FTUS41 KBGM 280900 AAA
TAFSYR
TAF AMD
KSYR 280900Z 2809/2906 30006KT P6SM SKC
     FM281400 32007KT P6SM SKC
     FM282300 VRB03KT P6SM SKC=



000
FTUS41 KBGM 280900 AAA
TAFBGM
TAF AMD
KBGM 280900Z 2809/2906 32010KT P6SM SKC
     FM281500 33010G18KT P6SM SKC
     FM290000 32005KT P6SM SKC=



000
FTUS41 KBGM 280900 AAA
TAFELM
TAF AMD
KELM 280900Z 2809/2906 26007KT P6SM SKC
     FM281400 31008KT P6SM SKC
     FM282300 00000KT P6SM SKC=



000
FTUS41 KBGM 280900 AAA
TAFITH
TAF AMD
KITH 280900Z 2809/2906 33008KT P6SM SKC
     FM290000 VRB03KT P6SM SKC=



000
FTUS41 KBGM 280900 AAA
TAFITH
TAF AMD
KITH 280900Z 2809/2906 33008KT P6SM SKC
     FM290000 VRB03KT P6SM SKC=



000
FTUS41 KBGM 280900 AAA
TAFELM
TAF AMD
KELM 280900Z 2809/2906 26007KT P6SM SKC
     FM281400 31008KT P6SM SKC
     FM282300 00000KT P6SM SKC=



000
FTUS41 KBGM 280800 AAA
TAFAVP
TAF AMD
KAVP 280807Z 2808/2906 31007KT P6SM SKC
     FM281500 33010G16KT P6SM SKC
     FM290000 VRB03KT P6SM SKC=



000
FTUS41 KBGM 280500
TAFITH
TAF
KITH 280530Z 2806/2906 33008KT P6SM SKC
     FM290000 VRB03KT P6SM SKC=



000
FTUS41 KBGM 280500
TAFBGM
TAF
KBGM 280530Z 2806/2906 32010KT P6SM SKC
     FM281500 33010G18KT P6SM SKC
     FM290000 32005KT P6SM SKC=



000
FTUS41 KBGM 280500
TAFAVP
TAF
KAVP 280530Z 2806/2906 33010G16KT P6SM SKC
     FM290000 VRB03KT P6SM SKC=



000
FTUS41 KBGM 280500
TAFELM
TAF
KELM 280530Z 2806/2906 26007KT P6SM SKC
     FM281400 31008KT P6SM SKC
     FM282300 00000KT P6SM SKC=



000
FTUS41 KBGM 280500
TAFSYR
TAF
KSYR 280530Z 2806/2906 31006KT P6SM BKN250
     FM281400 32006KT P6SM SKC
     FM282300 VRB03KT P6SM SKC=



000
FTUS41 KBGM 280300 AAA
TAFITH
TAF AMD
KITH 280326Z 2803/2824 33007KT P6SM SKC=



000
FTUS41 KBGM 280300 AAA
TAFAVP
TAF AMD
KAVP 280325Z 2803/2824 35013G22KT P6SM SCT025
     FM280700 31010KT P6SM SCT250=



000
FTUS41 KBGM 272300
TAFELM
TAF
KELM 272330Z 2800/2824 32007KT P6SM SKC=



000
FTUS41 KBGM 272300
TAFITH
TAF
KITH 272330Z 2800/2824 33011G19KT P6SM -SHSN SCT020
     FM280600 33008KT P6SM SKC=



000
FTUS41 KBGM 272300
TAFSYR
TAF
KSYR 272330Z 2800/2824 32011KT P6SM BKN250
     FM281400 32006KT P6SM SKC=



000
FTUS41 KBGM 272300
TAFBGM
TAF
KBGM 272330Z 2800/2824 33012G20KT P6SM -SHSN SCT012
     FM280500 33010KT P6SM SKC=



000
FTUS41 KBGM 272300
TAFAVP
TAF
KAVP 272330Z 2800/2824 35013G22KT P6SM BKN025 OVC040
     FM280700 31010KT P6SM SCT250=



000
FTUS41 KBGM 271900 AAA
TAFAVP
TAF AMD
KAVP 271913Z 2719/2818 35008KT P6SM OVC080
     FM280700 31010KT P6SM SCT250=



000
FTUS41 KBGM 271700 RRA
TAFSYR
TAF
KSYR 271744Z 2718/2818 31008KT P6SM OVC150
     FM271900 33011KT P6SM SCT025 OVC150
     FM280000 33009KT P6SM OVC040
     FM280800 32006KT P6SM SCT250=



000
FTUS41 KBGM 271700 RRA
TAFBGM
TAF
KBGM 271744Z 2718/2818 33011KT P6SM OVC150
     FM272200 33012G20KT P6SM OVC025
     FM280700 33010KT P6SM SCT250=



000
FTUS41 KBGM 271700 RRA
TAFITH
TAF
KITH 271744Z 2718/2818 33012KT P6SM OVC010
      TEMPO 2718/2721 5SM -SHSN OVC008
     FM280000 33011KT 5SM -SHSN OVC010
     FM280900 33010KT P6SM SCT250=



000
FTUS41 KBGM 271700 RRA
TAFELM
TAF
KELM 271744Z 2718/2818 34010KT P6SM OVC040
     FM280000 32007KT P6SM OVC045
     FM280600 32006KT P6SM SCT250=



000
FTUS41 KBGM 271700 RRA
TAFAVP
TAF
KAVP 271744Z 2718/2818 35008KT P6SM OVC050
      TEMPO 2718/2721 6SM -SHSN OVC030
     FM280700 31010KT P6SM SCT250=



000
FTUS41 KBGM 271600 AAB
TAFITH
TAF AMD
KITH 271628Z 2716/2812 33008KT 5SM -SHSN OVC010
      TEMPO 2716/2720 5SM -SHSN OVC008
     FM280000 33010KT 4SM -SHSN OVC010=



000
FTUS41 KBGM 271600 AAA
TAFSYR
TAF AMD
KSYR 271615Z 2716/2812 31008KT P6SM OVC060
     FM271800 33010G18KT P6SM -SHSN OVC040
      TEMPO 2719/2721 3SM -SN OVC025
     FM280000 32008KT P6SM -SHSN OVC040=



000
FTUS41 KBGM 271600 AAA
TAFBGM
TAF AMD
KBGM 271606Z 2716/2812 33010KT P6SM OVC150
     FM272000 33012G20KT 4SM -SHSN OVC025
     FM280200 34010G16KT P6SM -SHSN OVC025=



000
FTUS41 KBGM 271300 AAA
TAFAVP
TAF AMD
KAVP 271347Z 2714/2812 35008KT P6SM OVC050
     FM271600 33010G18KT P6SM -SHSN SCT025 OVC040
     FM280600 31010KT P6SM BKN050=



000
FTUS41 KBGM 271300 AAA
TAFITH
TAF AMD
KITH 271314Z 2713/2812 33008KT 4SM -SHSN OVC008
     FM271600 33012G20KT 4SM -SHSN OVC008
     FM280000 33010KT 4SM -SHSN OVC010=



000
FTUS41 KBGM 271100
TAFAVP
TAF
KAVP 271136Z 2712/2812 34008KT 3SM -SHSN SCT020 OVC040
      TEMPO 2712/2714 1 1/2SM -SHSN BKN015 OVC030
     FM271600 33010G18KT P6SM -SHSN SCT025 OVC040
     FM280600 31010KT P6SM BKN050=



000
FTUS41 KBGM 271100
TAFSYR
TAF
KSYR 271136Z 2712/2812 31008KT P6SM OVC060
     FM271500 33010G18KT P6SM -SHSN OVC040
      TEMPO 2717/2721 3SM -SN OVC025
     FM280000 32008KT P6SM -SHSN OVC040=



000
FTUS41 KBGM 271100
TAFELM
TAF
KELM 271136Z 2712/2812 34010KT P6SM -SHSN OVC035
     FM280000 32007KT P6SM OVC045=



000
FTUS41 KBGM 271100
TAFITH
TAF
KITH 271136Z 2712/2812 33008KT P6SM -SHSN OVC035
     FM271600 33012G20KT 4SM -SHSN OVC025
     FM280000 33010KT 4SM -SHSN OVC025=



000
FTUS41 KBGM 271100
TAFBGM
TAF
KBGM 271136Z 2712/2812 35010KT P6SM -SHSN OVC035
     FM271600 33012G20KT 4SM -SHSN OVC025
     FM280200 34010G16KT P6SM -SHSN OVC025=



000
FTUS41 KBGM 271100 AAC
TAFAVP
TAF AMD
KAVP 271101Z 2711/2806 36007KT 3SM -SHSN SCT020 OVC040
      TEMPO 2711/2713 1 1/2SM -SHSN BKN015 OVC340
     FM271300 35008KT P6SM -SHSN SCT020 OVC040
     FM271600 33010G18KT P6SM -SHSN SCT025 OVC040=



000
FTUS41 KBGM 271000 AAB
TAFAVP
TAF AMD
KAVP 271006Z 2710/2806 36007KT P6SM -SHSN SCT020 OVC050
      TEMPO 2710/2712 3SM -SHSN BKN025 OVC040
     FM271600 33010G18KT P6SM -SHSN SCT025 OVC040=



000
FTUS41 KBGM 270900 AAA
TAFSYR
TAF AMD
KSYR 270906Z 2709/2806 36007KT P6SM OVC060
     FM271500 33010G18KT P6SM -SHSN OVC040
      TEMPO 2717/2721 3SM -SN OVC025
     FM280000 32010KT P6SM -SHSN OVC040=



000
FTUS41 KBGM 270900 AAA
TAFAVP
TAF AMD
KAVP 270906Z 2709/2806 02007KT P6SM -SHSN SCT020 OVC050
     FM271600 33010G18KT P6SM -SHSN SCT025 OVC040=



000
FTUS41 KBGM 270900 AAA
TAFITH
TAF AMD
KITH 270906Z 2709/2806 35007KT P6SM -SHSN OVC035
     FM271500 33012G20KT 4SM -SHSN OVC025
     FM280000 33010KT 4SM -SHSN OVC025=



000
FTUS41 KBGM 270900 AAB
TAFELM
TAF AMD
KELM 270906Z 2709/2806 01004KT P6SM -SN SCT025 OVC040
      TEMPO 2709/2710 3SM -SN OVC025
     FM271500 35010G16KT P6SM -SHSN OVC035
     FM280000 32008KT P6SM OVC045=



000
FTUS41 KBGM 270900 AAA
TAFBGM
TAF AMD
KBGM 270906Z 2709/2806 36008KT P6SM -SHSN OVC035
     FM271600 33012G20KT 4SM -SHSN OVC025
     FM280200 34010G16KT P6SM -SHSN OVC025=



000
FTUS41 KBGM 270800 AAA
TAFELM
TAF AMD
KELM 270829Z 2708/2806 01004KT P6SM -SN SCT025 OVC040
      TEMPO 2708/2710 3SM -SN OVC025
     FM271500 35010G16KT P6SM -SHSN OVC035
     FM280000 31008KT P6SM OVC045=



    US Dept of Commerce
    National Oceanic and Atmospheric Administration
    National Weather Service
    1325 East West Highway
    Silver Spring, MD 20910
    Page Author: NWS Internet Services Team
Disclaimer
Information Quality
Credits
Glossary
Privacy Policy
Freedom of Information Act (FOIA)
About Us
Career Opportunities